»·PEaware :: ASA184 KSEA-KSAN

ASA184 :: KSEA-KSAN

FLIGHT INFORMATION

Flight Status: Arrived
Operator:
Alaska Airlines
More flights by this operator :: More flights under this callsign
Pilot: Mariano P. (20682)
Aircraft: BOEING 737-900
(B739)
More flights by this aircraft type
Origin: KSEA Seattle-Tacoma Intl
United States
Destination: KSAN San Diego Intl-Lindbergh
United States
More flights between these airports :: More routes between these airports
Route: +SUMMA1 SUMMA PAAGE Q11 PASKE HUULK COMIX2
File this flight plan on PilotEdge
Remarks:
Altitude:
(Current/Filed)
37,000ft
Speed:
(Current/Filed)
450kts
Departed: 06-Oct-18 04:13 PM
Arrived: 06-Oct-18 06:33 PM
Distance/Time
Traveled:
913nm/2:20
Distance/Time
To Go:
Arrived

Flight Plot

Page will automatically refresh every two minutes.

Flight plan parsing failed; only flown route is shown


Map Options




Map Legend


Flown Route
Filed Route
Departure Airport
Arrival Airport
Navaid (VOR, NDB)
Fix

Horizontal Profiles

Position Reports

Time Latitude Longitude Heading Altitude Ground
Speed
06-Oct-18 15:46 47.448705 -122.301280 231 441ft 0kts
06-Oct-18 15:47 47.448705 -122.301280 231 441ft 0kts
06-Oct-18 15:48 47.448705 -122.301280 231 441ft 0kts
06-Oct-18 15:49 47.448705 -122.301280 231 441ft 0kts
06-Oct-18 15:50 47.448705 -122.301280 231 440ft 0kts
06-Oct-18 15:51 47.448705 -122.301280 231 440ft 0kts
06-Oct-18 15:52 47.448705 -122.301280 231 440ft 0kts
06-Oct-18 15:53 47.448705 -122.301280 231 440ft 0kts
06-Oct-18 15:54 47.448705 -122.301280 231 440ft 0kts
06-Oct-18 15:55 47.448705 -122.301280 231 440ft 0kts
06-Oct-18 15:56 47.448705 -122.301280 231 440ft 0kts
06-Oct-18 15:57 47.448705 -122.301280 231 440ft 0kts
06-Oct-18 15:58 47.448705 -122.301280 231 440ft 0kts
06-Oct-18 15:59 47.448705 -122.301280 231 440ft 0kts
06-Oct-18 16:00 47.448705 -122.301280 231 440ft 0kts
06-Oct-18 16:01 47.448705 -122.301280 231 440ft 0kts
06-Oct-18 16:02 47.448705 -122.301280 231 440ft 0kts
06-Oct-18 16:03 47.448731 -122.301234 232 440ft 1kts
06-Oct-18 16:04 47.448949 -122.300412 292 440ft 2kts
06-Oct-18 16:05 47.448708 -122.299986 314 440ft 0kts
06-Oct-18 16:06 47.448708 -122.299986 314 440ft 0kts
06-Oct-18 16:07 47.448708 -122.299986 314 440ft 0kts
06-Oct-18 16:08 47.449195 -122.300713 313 440ft 7kts
06-Oct-18 16:09 47.450133 -122.305251 271 440ft 12kts
06-Oct-18 16:10 47.453364 -122.306278 0 440ft 20kts
06-Oct-18 16:11 47.458945 -122.306225 0 440ft 18kts
06-Oct-18 16:12 47.463116 -122.306198 0 440ft 6kts
06-Oct-18 16:13 47.463650 -122.309119 270 440ft 0kts
06-Oct-18 16:14 47.461716 -122.310980 182 441ft 33kts
06-Oct-18 16:15 47.425058 -122.311071 179 2144ft 163kts
06-Oct-18 16:16 47.373733 -122.310762 179 4532ft 209kts
06-Oct-18 16:17 47.303650 -122.310087 179 6686ft 276kts
06-Oct-18 16:18 47.226698 -122.299215 155 10104ft 287kts
06-Oct-18 16:19 47.150665 -122.233679 152 11829ft 353kts
06-Oct-18 16:20 47.054530 -122.184332 163 14493ft 376kts
06-Oct-18 16:21 46.952515 -122.138904 162 17146ft 390kts
06-Oct-18 16:22 46.849265 -122.091740 165 19513ft 404kts
06-Oct-18 16:23 46.737411 -122.041967 166 20714ft 442kts
06-Oct-18 16:24 46.617766 -121.980196 152 22283ft 467kts
06-Oct-18 16:25 46.514829 -121.860152 139 23878ft 481kts
06-Oct-18 16:26 46.405482 -121.745676 159 25191ft 493kts
06-Oct-18 16:27 46.275166 -121.700679 177 27083ft 475kts
06-Oct-18 16:28 46.143662 -121.670029 177 28208ft 482kts
06-Oct-18 16:29 46.008607 -121.635818 176 28927ft 488kts
06-Oct-18 16:30 45.882628 -121.603012 178 31443ft 447kts
06-Oct-18 16:31 45.765944 -121.572992 167 33302ft 422kts
06-Oct-18 16:32 45.647843 -121.542265 167 33390ft 440kts
06-Oct-18 16:33 45.525246 -121.510589 167 33530ft 455kts
06-Oct-18 16:34 45.404837 -121.479640 166 34069ft 428kts
06-Oct-18 16:35 45.287072 -121.448865 178 34109ft 438kts
06-Oct-18 16:36 45.164238 -121.417993 178 34108ft 458kts
06-Oct-18 16:37 45.035806 -121.385611 177 34178ft 481kts
06-Oct-18 16:38 44.901095 -121.351562 177 34169ft 500kts
06-Oct-18 16:39 44.765241 -121.317439 177 34153ft 474kts
06-Oct-18 16:40 44.637806 -121.285542 177 34505ft 463kts
06-Oct-18 16:41 44.511835 -121.254163 178 35285ft 458kts
06-Oct-18 16:42 44.389958 -121.224065 176 36962ft 427kts
06-Oct-18 16:43 44.273537 -121.195780 169 37068ft 425kts
06-Oct-18 16:44 44.155492 -121.166374 167 37036ft 438kts
06-Oct-18 16:45 44.033866 -121.136501 167 37051ft 447kts
06-Oct-18 16:46 43.910576 -121.105657 170 37075ft 434kts
06-Oct-18 16:47 43.795816 -121.078645 169 37083ft 413kts
06-Oct-18 16:48 43.681516 -121.050375 178 37141ft 421kts
06-Oct-18 16:49 43.565435 -121.022475 177 37072ft 427kts
06-Oct-18 16:50 43.447355 -120.994146 179 37146ft 437kts
06-Oct-18 16:51 43.324950 -120.965465 175 37111ft 451kts
06-Oct-18 16:52 43.199633 -120.935560 173 37145ft 464kts
06-Oct-18 16:53 43.070531 -120.904059 171 37139ft 478kts
06-Oct-18 16:54 42.940354 -120.872263 172 37130ft 493kts
06-Oct-18 16:55 42.803941 -120.838291 177 37132ft 501kts
06-Oct-18 16:56 42.671677 -120.807464 177 37106ft 449kts
06-Oct-18 16:57 42.555421 -120.779493 176 37082ft 422kts
06-Oct-18 16:58 42.438073 -120.751724 166 37058ft 432kts
06-Oct-18 16:59 42.320878 -120.723355 166 37030ft 428kts
06-Oct-18 17:00 42.202393 -120.694988 167 37022ft 433kts
06-Oct-18 17:01 42.081955 -120.666452 167 37027ft 446kts
06-Oct-18 17:02 41.958455 -120.637295 167 37026ft 453kts
06-Oct-18 17:03 41.833917 -120.607997 167 37022ft 457kts
06-Oct-18 17:04 41.709241 -120.578628 170 37003ft 454kts
06-Oct-18 17:05 41.584766 -120.549762 170 36999ft 451kts
06-Oct-18 17:06 41.463451 -120.521615 169 37005ft 456kts
06-Oct-18 17:07 41.338886 -120.492878 169 37006ft 455kts
06-Oct-18 17:08 41.213528 -120.463834 169 37000ft 455kts
06-Oct-18 17:09 41.088307 -120.435495 167 37012ft 450kts
06-Oct-18 17:10 40.970215 -120.405686 166 37022ft 413kts
06-Oct-18 17:11 40.858720 -120.370395 172 37018ft 416kts
06-Oct-18 17:12 40.744664 -120.335275 174 37028ft 426kts
06-Oct-18 17:13 40.627103 -120.299098 176 37028ft 440kts
06-Oct-18 17:14 40.510470 -120.264909 171 37030ft 415kts
06-Oct-18 17:15 40.397948 -120.229811 167 37027ft 416kts
06-Oct-18 17:16 40.286301 -120.195323 166 37024ft 411kts
06-Oct-18 17:17 40.174464 -120.160249 172 37035ft 417kts
06-Oct-18 17:18 40.061947 -120.126267 175 37024ft 430kts
06-Oct-18 17:19 39.943340 -120.090665 175 37011ft 445kts
06-Oct-18 17:20 39.820879 -120.053893 176 37054ft 459kts
06-Oct-18 17:21 39.694560 -120.016068 172 37112ft 458kts
06-Oct-18 17:22 39.578020 -119.982482 166 37030ft 420kts
06-Oct-18 17:23 39.462298 -119.947279 165 37007ft 434kts
06-Oct-18 17:24 39.361249 -119.916975 164 37026ft 434kts
06-Oct-18 17:42 37.143323 -119.282836 174 36909ft 435kts
06-Oct-18 17:43 37.026626 -119.250635 175 36889ft 441kts
06-Oct-18 17:44 36.909027 -119.218816 171 36894ft 421kts
06-Oct-18 17:45 36.793646 -119.187276 171 36898ft 423kts
06-Oct-18 17:46 36.680287 -119.155994 171 36895ft 414kts
06-Oct-18 17:47 36.566742 -119.125602 166 36917ft 419kts
06-Oct-18 17:48 36.451362 -119.093846 164 36937ft 431kts
06-Oct-18 17:49 36.332293 -119.061339 166 36972ft 444kts
06-Oct-18 17:50 36.209973 -119.028414 166 36978ft 457kts
06-Oct-18 17:51 36.085319 -118.994938 166 36970ft 457kts
06-Oct-18 17:52 35.961232 -118.962089 165 36959ft 452kts
06-Oct-18 17:53 35.837905 -118.929312 165 36969ft 456kts
06-Oct-18 17:54 35.714617 -118.896542 165 36961ft 452kts
06-Oct-18 17:55 35.593384 -118.864462 165 36962ft 450kts
06-Oct-18 17:56 35.470060 -118.831966 165 36972ft 456kts
06-Oct-18 17:57 35.350509 -118.800564 165 36945ft 428kts
06-Oct-18 17:58 35.255636 -118.775121 169 36920ft 410kts
06-Oct-18 17:59 35.125240 -118.741941 167 36924ft 415kts
06-Oct-18 18:00 35.030139 -118.717061 165 36940ft 424kts
06-Oct-18 18:01 34.893912 -118.681428 166 36957ft 436kts
06-Oct-18 18:02 34.793583 -118.655379 165 36975ft 447kts
06-Oct-18 18:03 34.649758 -118.618303 167 36990ft 458kts
06-Oct-18 18:04 34.553300 -118.575565 149 36953ft 432kts
06-Oct-18 18:05 34.449202 -118.502280 147 36951ft 436kts
06-Oct-18 18:06 34.343379 -118.427097 148 36984ft 449kts
06-Oct-18 18:07 34.235473 -118.350394 148 36993ft 457kts
06-Oct-18 18:08 34.138083 -118.281506 149 36999ft 450kts
06-Oct-18 18:09 34.029890 -118.205044 149 36891ft 452kts
06-Oct-18 18:10 33.920681 -118.128352 149 33809ft 457kts
06-Oct-18 18:11 33.811046 -118.052560 151 31066ft 447kts
06-Oct-18 18:12 33.703642 -117.981669 151 28624ft 432kts
06-Oct-18 18:13 33.599922 -117.913317 151 26253ft 418kts
06-Oct-18 18:14 33.499814 -117.846325 150 23947ft 405kts
06-Oct-18 18:15 33.410094 -117.768882 135 21703ft 392kts
06-Oct-18 18:16 33.335032 -117.677026 134 19538ft 380kts
06-Oct-18 18:17 33.261414 -117.589014 139 17437ft 368kts
06-Oct-18 18:18 33.182071 -117.521229 145 15013ft 342kts
06-Oct-18 18:19 33.105943 -117.457621 144 13936ft 337kts
06-Oct-18 18:20 33.029762 -117.393947 144 11915ft 332kts
06-Oct-18 18:21 32.959558 -117.335078 144 10809ft 277kts
06-Oct-18 18:22 32.899825 -117.285165 144 10000ft 267kts
06-Oct-18 18:23 32.838600 -117.234301 144 8639ft 264kts
06-Oct-18 18:24 32.801028 -117.164704 105 7298ft 254kts
06-Oct-18 18:25 32.783541 -117.085484 104 6287ft 235kts
06-Oct-18 18:26 32.760033 -117.015298 115 5786ft 230kts
06-Oct-18 18:27 32.737511 -116.945119 107 4703ft 223kts
06-Oct-18 18:28 32.716706 -116.876731 136 4092ft 220kts
06-Oct-18 18:29 32.665566 -116.894601 248 4140ft 223kts
06-Oct-18 18:30 32.678467 -116.964264 287 3777ft 215kts
06-Oct-18 18:31 32.694819 -117.029407 286 3159ft 211kts
06-Oct-18 18:32 32.709798 -117.091570 288 2274ft 180kts
06-Oct-18 18:33 32.722230 -117.142459 286 1113ft 153kts
06-Oct-18 18:34 32.733018 -117.187406 285 23ft 75kts
06-Oct-18 18:35 32.733218 -117.190370 193 23ft 1kts
06-Oct-18 18:36 32.732521 -117.189208 106 23ft 10kts
06-Oct-18 18:37 32.732248 -117.187394 37 23ft 0kts
06-Oct-18 18:38 32.732913 -117.187427 314 23ft 7kts
06-Oct-18 18:39 32.734481 -117.193462 292 23ft 27kts
06-Oct-18 18:40 32.734451 -117.198496 172 23ft 6kts

Navigation Log

Ident Type
Flight plan parsing failed, navigation log unavailable